Time;durP1;ratioP1;P1;durP2;ratioP2;P2;SDS_P1;SDS_P2;PMS_P1;PMS_P2;Temp;Humidity;BMP_temperature;BMP_pressure;BME280_temperature;BME280_humidity;BME280_pressure;Samples;Min_cycle;Max_cycle;Signal;HPM_P1;HPM_P2
2021/09/22 00:01:38;;;;;;;15.50;7.97;;;;;;;;;;5008365;28;20671;-91
2021/09/22 00:04:27;;;;;;;;;;;;;;;;;;5001222;28;20041;-90
2021/09/22 00:07:17;;;;;;;26.52;8.75;;;;;;;;;;5001257;28;20059;-88
2021/09/22 00:09:50;;;;;;;14.75;7.97;;;;;;;;;;5002985;28;20033;-89
2021/09/22 00:12:19;;;;;;;18.08;8.82;;;;;;;;;;5001066;28;20041;-90
2021/09/22 00:14:53;;;;;;;14.90;7.75;;;;;;;;;;4979375;28;20116;-89
2021/09/22 00:17:34;;;;;;;11.05;7.47;;;;;;;;;;4979285;28;20459;-91
2021/09/22 00:20:03;;;;;;;10.52;6.57;;;;;;;;;;4965255;28;20041;-89
2021/09/22 00:22:31;;;;;;;16.23;7.35;;;;;;;;;;4981110;28;20117;-92
2021/09/22 00:25:35;;;;;;;11.60;7.03;;;;;;;;;;4995515;28;20060;-88
2021/09/22 00:28:20;;;;;;;12.45;6.78;;;;;;;;;;4974731;28;20459;-89
2021/09/22 00:30:58;;;;;;;;;;;;;;;;;;;;;
2021/09/22 00:33:48;;;;;;;23.08;7.40;;;;;;;;;;4999590;28;20048;-88
2021/09/22 00:36:20;;;;;;;17.48;7.60;;;;;;;;;;4986114;28;20128;-91
2021/09/22 00:38:51;;;;;;;;;;;;;;;;;;5000023;28;20060;-88
2021/09/22 00:41:34;;;;;;;22.58;7.22;;;;;;;;;;4986410;28;19910;-90
2021/09/22 00:44:32;;;;;;;12.68;7.35;;;;;;;;;;4915967;29;20075;-89
2021/09/22 00:47:47;;;;;;;17.63;7.00;;;;;;;;;;4913463;29;20059;-92
2021/09/22 00:50:48;;;;;;;;;;;;;;;;;;;;;
2021/09/22 00:53:18;;;;;;;20.92;6.72;;;;;;;;;;4986818;28;20347;-87
2021/09/22 00:55:57;;;;;;;13.60;6.97;;;;;;;;;;4989279;28;20045;-89
2021/09/22 00:58:31;;;;;;;17.85;7.40;;;;;;;;;;4984819;28;20033;-90
2021/09/22 01:01:31;;;;;;;11.02;6.88;;;;;;;;;;4999667;28;20026;-90
2021/09/22 01:04:03;;;;;;;22.73;7.25;;;;;;;;;;4999231;28;20025;-90
2021/09/22 01:07:01;;;;;;;13.00;6.85;;;;;;;;;;5006892;28;20026;-88
2021/09/22 01:13:17;;;;;;;14.85;7.35;;;;;;;;;;5024228;28;20026;-87
2021/09/22 01:15:44;;;;;;;13.13;6.88;;;;;;;;;;4996934;28;20141;-88
2021/09/22 01:18:23;;;;;;;17.88;6.53;;;;;;;;;;4994314;28;20061;-90
2021/09/22 01:20:59;;;;;;;15.27;6.80;;;;;;;;;;5022113;28;20053;-91
2021/09/22 01:23:28;;;;;;;12.15;8.05;;;;;;;;;;5011928;28;20033;-91
2021/09/22 01:26:04;;;;;;;11.70;6.95;;;;;;;;;;5007571;28;20018;-91
2021/09/22 01:28:30;;;;;;;16.25;6.75;;;;;;;;;;5012102;28;20311;-90
2021/09/22 01:31:08;;;;;;;16.58;7.93;;;;;;;;;;5009667;28;20022;-91
2021/09/22 01:33:44;;;;;;;;;;;;;;;;;;;;;
2021/09/22 01:36:26;;;;;;;15.65;7.30;;;;;;;;;;5017333;28;20042;-90
2021/09/22 01:38:55;;;;;;;20.55;7.70;;;;;;;;;;5007040;28;20439;-90
2021/09/22 01:41:47;;;;;;;;;;;;;;;;;;;;;
2021/09/22 01:44:37;;;;;;;;;;;;;;;;;;;;;
2021/09/22 01:47:33;;;;;;;13.57;6.95;;;;;;;;;;5005924;28;20459;-90
2021/09/22 01:50:11;;;;;;;15.68;7.07;;;;;;;;;;4985149;28;20045;-88
2021/09/22 01:52:52;;;;;;;14.10;6.80;;;;;;;;;;5010107;28;20030;-90
2021/09/22 01:55:42;;;;;;;15.70;6.30;;;;;;;;;;4997520;28;20030;-89
2021/09/22 01:58:36;;;;;;;;;;;;;;;;;;;;;
2021/09/22 02:01:13;;;;;;;13.10;6.68;;;;;;;;;;4994071;28;20050;-91
2021/09/22 02:03:47;;;;;;;11.35;6.50;;;;;;;;;;5002144;28;20030;-89
2021/09/22 02:06:39;;;;;;;14.88;7.05;;;;;;;;;;4968645;28;20068;-89
2021/09/22 02:09:05;;;;;;;15.07;7.43;;;;;;;;;;4978828;28;20573;-91
2021/09/22 02:11:31;;;;;;;13.02;7.07;;;;;;;;;;5003267;28;20021;-88
2021/09/22 02:14:07;;;;;;;11.68;6.90;;;;;;;;;;4990420;28;20036;-89
2021/09/22 02:16:33;;;;;;;12.35;7.15;;;;;;;;;;5004969;28;20415;-89
2021/09/22 02:19:06;;;;;;;14.52;6.55;;;;;;;;;;4994387;28;20121;-89
2021/09/22 02:21:34;;;;;;;15.30;7.73;;;;;;;;;;4983800;28;20141;-92
2021/09/22 02:24:03;;;;;;;10.45;6.05;;;;;;;;;;5016056;28;20783;-90
2021/09/22 02:26:28;;;;;;;12.20;6.55;;;;;;;;;;4983601;28;20034;-91
2021/09/22 02:28:57;;;;;;;14.38;7.68;;;;;;;;;;4967655;28;20699;-87
2021/09/22 02:31:37;;;;;;;14.02;6.80;;;;;;;;;;4998843;28;20045;-91
2021/09/22 02:34:31;;;;;;;;;;;;;;;;;;;;;
2021/09/22 02:43:13;;;;;;;11.55;6.35;;;;;;;;;;4947806;28;20043;-90
2021/09/22 02:45:44;;;;;;;8.32;5.72;;;;;;;;;;4973260;28;20086;-91
2021/09/22 02:48:21;;;;;;;14.98;6.55;;;;;;;;;;4936191;28;20051;-92
2021/09/22 02:51:05;;;;;;;13.05;7.35;;;;;;;;;;4954452;29;20103;-88
2021/09/22 02:53:38;;;;;;;13.40;6.55;;;;;;;;;;4979479;28;20043;-91
2021/09/22 02:56:06;;;;;;;17.52;7.63;;;;;;;;;;4967469;28;20053;-89
2021/09/22 02:58:40;;;;;;;13.02;7.00;;;;;;;;;;4941944;29;20979;-90
2021/09/22 03:01:10;;;;;;;14.93;7.30;;;;;;;;;;4995958;28;20076;-90
2021/09/22 03:03:39;;;;;;;13.27;7.22;;;;;;;;;;5014535;28;20388;-90
2021/09/22 03:06:12;;;;;;;16.63;8.27;;;;;;;;;;5000406;28;20033;-90
2021/09/22 03:08:51;;;;;;;13.27;7.22;;;;;;;;;;4999634;28;20185;-90
2021/09/22 03:11:25;;;;;;;14.18;8.27;;;;;;;;;;4978059;28;20113;-88
2021/09/22 03:13:51;;;;;;;16.90;9.68;;;;;;;;;;4966759;28;20033;-90
2021/09/22 03:16:24;;;;;;;16.75;8.25;;;;;;;;;;4999380;28;20033;-91
2021/09/22 03:18:54;;;;;;;15.77;8.55;;;;;;;;;;5014083;28;20060;-90
2021/09/22 03:21:29;;;;;;;14.82;8.50;;;;;;;;;;5013876;28;20026;-90
2021/09/22 03:24:00;;;;;;;16.35;8.05;;;;;;;;;;5013757;28;20445;-88
2021/09/22 03:30:10;;;;;;;;;;;;;;;;;;;;;
2021/09/22 03:32:40;;;;;;;18.23;9.65;;;;;;;;;;5004813;28;20049;-90
2021/09/22 03:35:12;;;;;;;16.80;8.95;;;;;;;;;;5018255;28;20034;-89
2021/09/22 03:37:46;;;;;;;28.90;9.68;;;;;;;;;;5022025;28;20037;-89
2021/09/22 03:40:20;;;;;;;18.23;8.82;;;;;;;;;;4954373;28;20039;-88
2021/09/22 03:43:20;;;;;;;15.82;8.57;;;;;;;;;;4920369;28;20067;-90
2021/09/22 03:45:48;;;;;;;17.13;9.40;;;;;;;;;;4968992;28;20126;-88
2021/09/22 03:48:24;;;;;;;13.50;8.43;;;;;;;;;;4938124;29;20063;-89
2021/09/22 03:51:01;;;;;;;13.50;8.88;;;;;;;;;;4949852;29;20039;-89
2021/09/22 03:53:48;;;;;;;17.70;9.10;;;;;;;;;;4952141;28;20041;-90
2021/09/22 03:56:50;;;;;;;19.20;9.32;;;;;;;;;;4951789;28;20046;-90
2021/09/22 03:59:49;;;;;;;16.70;9.50;;;;;;;;;;4967716;28;20115;-88
2021/09/22 04:02:27;;;;;;;16.45;9.02;;;;;;;;;;4966872;28;20047;-89
2021/09/22 04:04:56;;;;;;;19.05;10.18;;;;;;;;;;4968432;28;20058;-88
2021/09/22 04:08:09;;;;;;;22.23;9.25;;;;;;;;;;4952767;28;20050;-90
2021/09/22 04:10:35;;;;;;;17.02;9.00;;;;;;;;;;4947465;28;20050;-90
2021/09/22 04:13:09;;;;;;;19.55;10.15;;;;;;;;;;4929919;29;20023;-90
2021/09/22 04:15:40;;;;;;;15.85;10.43;;;;;;;;;;4940940;29;20095;-89
2021/09/22 04:18:38;;;;;;;19.13;10.43;;;;;;;;;;4965849;28;20037;-91
2021/09/22 04:21:24;;;;;;;;;;;;;;;;;;;;;
2021/09/22 04:23:57;;;;;;;19.83;10.18;;;;;;;;;;4994005;28;20022;-89
2021/09/22 04:26:33;;;;;;;21.15;11.55;;;;;;;;;;4984232;28;20049;-90
2021/09/22 04:29:06;;;;;;;18.33;10.80;;;;;;;;;;4999028;28;20156;-88
2021/09/22 04:31:37;;;;;;;17.42;10.88;;;;;;;;;;4985880;28;20284;-90
2021/09/22 04:34:24;;;;;;;19.02;11.20;;;;;;;;;;4985072;28;20045;-89
2021/09/22 04:37:22;;;;;;;24.08;11.93;;;;;;;;;;5013492;28;20109;-89
2021/09/22 04:39:52;;;;;;;19.80;11.82;;;;;;;;;;5007230;28;20057;-90
2021/09/22 04:42:25;;;;;;;;;;;;;;;;;;4998575;28;20034;-90
2021/09/22 04:44:51;;;;;;;28.27;12.57;;;;;;;;;;4974002;28;20007;-86
2021/09/22 04:47:22;;;;;;;24.65;12.63;;;;;;;;;;4988432;28;20026;-89
2021/09/22 04:49:50;;;;;;;25.67;12.85;;;;;;;;;;5010781;28;20092;-89
2021/09/22 04:52:39;;;;;;;19.17;11.57;;;;;;;;;;5008176;28;20022;-88
2021/09/22 04:55:33;;;;;;;21.33;12.38;;;;;;;;;;5013761;28;20030;-88
2021/09/22 04:58:16;;;;;;;21.50;12.40;;;;;;;;;;5016060;28;20026;-92
2021/09/22 05:01:27;;;;;;;24.95;12.77;;;;;;;;;;5008077;28;20017;-88
2021/09/22 05:03:55;;;;;;;23.98;12.20;;;;;;;;;;5031751;28;20053;-90
2021/09/22 05:06:21;;;;;;;29.40;12.32;;;;;;;;;;5007536;28;20022;-90
2021/09/22 05:08:59;;;;;;;23.98;12.70;;;;;;;;;;5008083;28;20014;-87
2021/09/22 05:11:26;;;;;;;23.60;11.75;;;;;;;;;;5013881;28;20041;-91
2021/09/22 05:14:00;;;;;;;22.33;12.48;;;;;;;;;;5003630;28;20081;-89
2021/09/22 05:16:36;;;;;;;21.85;12.38;;;;;;;;;;4975088;28;20062;-91
2021/09/22 05:19:27;;;;;;;20.55;11.32;;;;;;;;;;4148813;28;24439304;-91
2021/09/22 05:22:26;;;;;;;;;;;;;;;;;;;;;
2021/09/22 05:25:04;;;;;;;21.15;12.07;;;;;;;;;;5006186;28;20101;-90
2021/09/22 05:27:43;;;;;;;24.73;13.68;;;;;;;;;;4986582;28;20034;-89
2021/09/22 05:30:46;;;;;;;23.38;12.38;;;;;;;;;;4970113;28;20118;-89
2021/09/22 05:36:28;;;;;;;20.45;12.43;;;;;;;;;;4941879;28;20081;-89
2021/09/22 05:42:53;;;;;;;22.23;11.90;;;;;;;;;;4998045;28;20042;-89
2021/09/22 05:45:46;;;;;;;;;;;;;;;;;;;;;
2021/09/22 05:48:26;;;;;;;;;;;;;;;;;;;;;
2021/09/22 05:51:22;;;;;;;;;;;;;;;;;;;;;
2021/09/22 05:54:21;;;;;;;;;;;;;;;;;;;;;
2021/09/22 05:57:00;;;;;;;19.17;11.73;;;;;;;;;;4849935;29;20036;-92
2021/09/22 06:06:42;;;;;;;27.80;11.50;;;;;;;;;;4800406;29;20047;-89
2021/09/22 06:09:51;;;;;;;23.67;10.48;;;;;;;;;;4810289;29;20043;-90
2021/09/22 06:12:42;;;;;;;18.85;10.27;;;;;;;;;;4874275;29;20163;-90
2021/09/22 06:15:20;;;;;;;19.52;11.70;;;;;;;;;;4873661;29;20043;-90
2021/09/22 06:18:19;;;;;;;;;;;;;;;;;;;;;
2021/09/22 06:21:05;;;;;;;17.63;9.68;;;;;;;;;;4885811;29;20084;-90
2021/09/22 06:23:31;;;;;;;22.45;10.88;;;;;;;;;;4890354;29;20040;-88
2021/09/22 06:26:02;;;;;;;16.98;10.50;;;;;;;;;;4924024;29;20098;-91
2021/09/22 06:28:28;;;;;;;25.13;10.18;;;;;;;;;;4909701;29;20462;-89
2021/09/22 06:30:54;;;;;;;26.17;10.60;;;;;;;;;;4923080;29;20099;-90
2021/09/22 06:33:28;;;;;;;20.77;9.60;;;;;;;;;;4914260;29;20047;-88
2021/09/22 06:36:14;;;;;;;17.88;9.40;;;;;;;;;;4890393;29;20040;-90
2021/09/22 06:38:51;;;;;;;22.23;10.10;;;;;;;;;;4940212;29;20028;-90
2021/09/22 06:41:37;;;;;;;19.25;9.38;;;;;;;;;;4915321;29;20028;-90
2021/09/22 06:44:40;;;;;;;21.08;9.32;;;;;;;;;;4926373;29;20071;-91
2021/09/22 06:47:15;;;;;;;19.88;9.13;;;;;;;;;;4924011;29;20126;-88
2021/09/22 06:49:40;;;;;;;13.13;8.05;;;;;;;;;;4923526;29;20059;-88
2021/09/22 06:52:20;;;;;;;12.43;7.97;;;;;;;;;;4962855;28;20443;-91
2021/09/22 06:54:47;;;;;;;17.70;9.65;;;;;;;;;;4982781;28;20050;-92
2021/09/22 06:57:21;;;;;;;;;;;;;;;;;;4971343;28;20018;-90
2021/09/22 06:59:47;;;;;;;12.35;8.20;;;;;;;;;;4968404;28;19929;-90
2021/09/22 07:02:22;;;;;;;19.42;9.05;;;;;;;;;;4961291;28;20024;-90
2021/09/22 07:05:11;;;;;;;18.48;9.10;;;;;;;;;;4965746;28;20038;-87
2021/09/22 07:08:26;;;;;;;15.15;8.98;;;;;;;;;;5003357;28;20122;-89
2021/09/22 07:10:52;;;;;;;14.55;8.80;;;;;;;;;;4978783;28;20093;-88
2021/09/22 07:13:27;;;;;;;13.35;8.05;;;;;;;;;;4953997;28;20030;-89
2021/09/22 07:15:56;;;;;;;16.30;9.07;;;;;;;;;;4967020;28;20050;-88
2021/09/22 07:18:49;;;;;;;15.47;8.60;;;;;;;;;;4987796;28;20034;-89
2021/09/22 07:21:25;;;;;;;20.23;8.82;;;;;;;;;;4984124;28;20111;-89
2021/09/22 07:23:54;;;;;;;14.93;8.38;;;;;;;;;;5000243;28;20025;-88
2021/09/22 07:26:27;;;;;;;13.30;8.00;;;;;;;;;;4999757;28;20053;-88
2021/09/22 07:28:53;;;;;;;12.32;7.18;;;;;;;;;;5003601;28;20028;-88
2021/09/22 07:31:39;;;;;;;13.35;7.30;;;;;;;;;;4973963;28;20131;-92
2021/09/22 07:34:19;;;;;;;12.77;6.30;;;;;;;;;;4984222;28;20126;-92
2021/09/22 07:36:53;;;;;;;12.43;6.50;;;;;;;;;;4982538;28;20062;-93
2021/09/22 07:39:37;;;;;;;14.52;7.13;;;;;;;;;;5013359;28;20018;-92
2021/09/22 07:42:44;;;;;;;17.80;7.07;;;;;;;;;;4961006;28;20023;-90
2021/09/22 07:48:27;;;;;;;12.63;6.85;;;;;;;;;;4942062;28;20053;-92
2021/09/22 07:51:04;;;;;;;11.50;6.72;;;;;;;;;;4943588;28;20071;-90
2021/09/22 07:54:19;;;;;;;12.32;6.63;;;;;;;;;;4939709;28;20129;-90
2021/09/22 07:57:11;;;;;;;;;;;;;;;;;;;;;
2021/09/22 08:00:28;;;;;;;9.90;6.38;;;;;;;;;;4904920;28;20043;-90
2021/09/22 08:06:08;;;;;;;12.85;6.80;;;;;;;;;;5001442;28;20312;-92
2021/09/22 08:09:16;;;;;;;12.45;7.13;;;;;;;;;;4989879;28;20122;-91
2021/09/22 08:12:05;;;;;;;12.02;6.95;;;;;;;;;;4949676;29;20020;-89
2021/09/22 08:14:54;;;;;;;11.68;7.15;;;;;;;;;;4941082;28;20884;-90
2021/09/22 08:21:58;;;;;;;;;;;;;;;;;;;;;
2021/09/22 08:25:02;;;;;;;17.48;8.88;;;;;;;;;;4973345;28;20046;-92
2021/09/22 08:53:59;;;;;;;;;;;;;;;;;;;;;
2021/09/22 09:14:49;;;;;;;15.77;8.70;;;;;;;;;;5048190;27;1316513;-66
2021/09/22 09:17:20;;;;;;;17.23;9.48;;;;;;;;;;5060956;28;20039;-66
2021/09/22 09:19:45;;;;;;;13.65;8.23;;;;;;;;;;5074966;28;20092;-67
2021/09/22 09:22:11;;;;;;;12.82;8.45;;;;;;;;;;5094677;28;20655;-69
2021/09/22 09:24:42;;;;;;;11.82;8.65;;;;;;;;;;5060471;28;20151;-67
2021/09/22 09:27:09;;;;;;;13.70;8.30;;;;;;;;;;5059870;28;20024;-68
2021/09/22 09:29:38;;;;;;;14.52;8.38;;;;;;;;;;5092591;28;20023;-67
2021/09/22 09:32:13;;;;;;;14.00;8.57;;;;;;;;;;5076111;28;21885;-67
2021/09/22 09:34:58;;;;;;;18.15;8.98;;;;;;;;;;5075473;27;20027;-68
2021/09/22 09:37:48;;;;;;;18.20;8.70;;;;;;;;;;5079867;27;20027;-68
2021/09/22 09:40:25;;;;;;;18.50;9.10;;;;;;;;;;5065255;28;20039;-67
2021/09/22 09:42:56;;;;;;;13.48;8.60;;;;;;;;;;5063160;28;20122;-68
2021/09/22 09:45:22;;;;;;;16.98;9.27;;;;;;;;;;5059154;28;20561;-68
2021/09/22 09:47:59;;;;;;;12.73;8.40;;;;;;;;;;5060379;28;20034;-69
2021/09/22 09:50:26;;;;;;;14.55;9.32;;;;;;;;;;5094165;27;20483;-68
2021/09/22 09:52:53;;;;;;;18.20;9.48;;;;;;;;;;5095036;27;20028;-67
2021/09/22 09:55:19;;;;;;;19.85;10.18;;;;;;;;;;5076155;28;20518;-69
2021/09/22 09:57:48;;;;;;;16.65;10.32;;;;;;;;;;5075577;28;20030;-68
2021/09/22 10:00:16;;;;;;;18.85;9.40;;;;;;;;;;5095413;27;20023;-67
2021/09/22 10:02:42;;;;;;;18.27;9.23;;;;;;;;;;5094420;27;20027;-68
2021/09/22 10:05:08;;;;;;;15.05;9.20;;;;;;;;;;5059378;28;20093;-66
2021/09/22 10:07:36;;;;;;;15.10;9.70;;;;;;;;;;5074783;28;20501;-68
2021/09/22 10:10:06;;;;;;;17.75;9.70;;;;;;;;;;5075985;28;20067;-69
2021/09/22 10:12:33;;;;;;;17.60;9.00;;;;;;;;;;5094452;28;20479;-68
2021/09/22 10:15:01;;;;;;;17.25;8.25;;;;;;;;;;5093052;28;20140;-68
2021/09/22 10:17:29;;;;;;;16.15;8.77;;;;;;;;;;5057212;28;20061;-68
2021/09/22 10:19:55;;;;;;;17.95;8.85;;;;;;;;;;5077654;28;20043;-68
2021/09/22 10:22:21;;;;;;;15.93;7.82;;;;;;;;;;5058404;28;20031;-69
2021/09/22 10:24:48;;;;;;;12.52;7.45;;;;;;;;;;5070613;28;20030;-68
2021/09/22 10:27:14;;;;;;;13.13;8.95;;;;;;;;;;5077459;28;20028;-68
2021/09/22 10:30:11;;;;;;;15.85;7.82;;;;;;;;;;5048580;28;20063;-69
2021/09/22 10:32:40;;;;;;;13.93;7.53;;;;;;;;;;5061229;28;20603;-68
2021/09/22 10:35:24;;;;;;;13.05;7.72;;;;;;;;;;5045386;28;20145;-68
2021/09/22 10:37:51;;;;;;;16.88;8.35;;;;;;;;;;5051813;28;20059;-68
2021/09/22 10:40:19;;;;;;;15.52;8.27;;;;;;;;;;5060609;28;20047;-66
2021/09/22 10:42:45;;;;;;;16.92;8.57;;;;;;;;;;5079487;28;20027;-67
2021/09/22 10:45:11;;;;;;;15.00;8.55;;;;;;;;;;5060055;28;20102;-63
2021/09/22 10:47:37;;;;;;;16.15;8.52;;;;;;;;;;5066429;28;20038;-66
2021/09/22 10:50:03;;;;;;;13.95;7.97;;;;;;;;;;5060931;28;20043;-69
2021/09/22 10:52:37;;;;;;;13.00;8.05;;;;;;;;;;5046224;28;20035;-66
2021/09/22 10:55:18;;;;;;;15.55;8.40;;;;;;;;;;5045304;28;20038;-67
2021/09/22 10:57:44;;;;;;;17.33;8.70;;;;;;;;;;5064194;28;20093;-68
2021/09/22 11:00:18;;;;;;;17.67;8.65;;;;;;;;;;5058953;28;20032;-68
2021/09/22 11:02:55;;;;;;;16.20;7.32;;;;;;;;;;5078277;28;20125;-63
2021/09/22 11:05:26;;;;;;;17.65;7.03;;;;;;;;;;5043549;28;20979;-66
2021/09/22 11:07:52;;;;;;;11.50;6.45;;;;;;;;;;5061407;28;20040;-64
2021/09/22 11:10:40;;;;;;;13.30;7.63;;;;;;;;;;5049858;28;20036;-69
2021/09/22 11:13:28;;;;;;;13.93;7.88;;;;;;;;;;5065280;28;20048;-67
2021/09/22 11:16:07;;;;;;;16.70;8.25;;;;;;;;;;5063997;28;20063;-67
2021/09/22 11:18:40;;;;;;;17.08;7.25;;;;;;;;;;5058873;28;20391;-69
2021/09/22 11:21:05;;;;;;;15.35;7.43;;;;;;;;;;5068286;28;20064;-69
2021/09/22 11:23:32;;;;;;;11.35;5.38;;;;;;;;;;5077938;28;20055;-67
2021/09/22 11:26:07;;;;;;;9.82;3.80;;;;;;;;;;5059406;28;20127;-67
2021/09/22 11:28:34;;;;;;;8.43;4.20;;;;;;;;;;5078447;28;20062;-69
2021/09/22 11:31:00;;;;;;;10.45;3.85;;;;;;;;;;5078322;28;20031;-69
2021/09/22 11:33:29;;;;;;;7.15;3.33;;;;;;;;;;5063556;28;20062;-68
2021/09/22 11:36:06;;;;;;;6.53;3.13;;;;;;;;;;5058745;28;21399;-69
2021/09/22 11:38:36;;;;;;;8.40;3.40;;;;;;;;;;5063991;28;20020;-68
2021/09/22 11:41:02;;;;;;;7.05;3.05;;;;;;;;;;5077523;28;20053;-69
2021/09/22 11:43:28;;;;;;;5.35;2.95;;;;;;;;;;5076474;28;20415;-70
2021/09/22 11:46:02;;;;;;;6.75;3.20;;;;;;;;;;5045780;28;20032;-69
2021/09/22 11:48:32;;;;;;;7.63;2.80;;;;;;;;;;5057028;28;20643;-69
2021/09/22 11:50:58;;;;;;;6.70;2.90;;;;;;;;;;5059717;28;20039;-69
2021/09/22 11:53:35;;;;;;;9.20;3.40;;;;;;;;;;5060027;28;20070;-68
2021/09/22 11:56:01;;;;;;;6.05;2.70;;;;;;;;;;5047002;28;20040;-69
2021/09/22 11:58:31;;;;;;;5.95;2.83;;;;;;;;;;5075489;28;20028;-68
2021/09/22 12:00:58;;;;;;;6.78;2.88;;;;;;;;;;5046556;28;20122;-69
2021/09/22 12:03:27;;;;;;;6.35;2.70;;;;;;;;;;5060707;28;20035;-69
2021/09/22 12:06:03;;;;;;;9.35;2.72;;;;;;;;;;5047431;28;20059;-68
2021/09/22 12:08:29;;;;;;;6.47;2.28;;;;;;;;;;5045498;28;20023;-69
2021/09/22 12:10:54;;;;;;;4.70;2.63;;;;;;;;;;5059355;28;20026;-68
2021/09/22 12:13:20;;;;;;;6.05;2.90;;;;;;;;;;5044105;28;20055;-69
2021/09/22 12:15:45;;;;;;;7.43;2.83;;;;;;;;;;5050909;28;20146;-66
2021/09/22 12:18:14;;;;;;;9.13;3.20;;;;;;;;;;5026610;28;20171;-65
2021/09/22 12:20:41;;;;;;;8.45;3.30;;;;;;;;;;5045618;28;20404;-66
2021/09/22 12:23:09;;;;;;;10.50;3.25;;;;;;;;;;5031183;28;20063;-67
2021/09/22 12:25:36;;;;;;;10.65;2.50;;;;;;;;;;5050054;28;20030;-69
2021/09/22 12:28:05;;;;;;;9.77;2.95;;;;;;;;;;5041768;28;20016;-69
2021/09/22 12:30:35;;;;;;;5.05;2.15;;;;;;;;;;5050186;28;20114;-69
2021/09/22 12:33:02;;;;;;;8.20;2.70;;;;;;;;;;5073225;28;22221;-69
2021/09/22 12:35:29;;;;;;;7.22;2.40;;;;;;;;;;5058204;28;20072;-68
2021/09/22 12:37:59;;;;;;;6.00;2.53;;;;;;;;;;5077089;28;20222;-66
2021/09/22 12:40:27;;;;;;;8.82;2.38;;;;;;;;;;5057703;28;20032;-67
2021/09/22 12:42:55;;;;;;;12.98;3.33;;;;;;;;;;5075305;28;20020;-68
2021/09/22 12:45:24;;;;;;;6.75;3.05;;;;;;;;;;5063265;28;20104;-68
2021/09/22 12:47:56;;;;;;;13.23;3.60;;;;;;;;;;5044521;28;20414;-69
2021/09/22 12:50:33;;;;;;;8.52;2.70;;;;;;;;;;5056777;28;20035;-68
2021/09/22 12:53:27;;;;;;;5.63;2.38;;;;;;;;;;5075684;28;20028;-69
2021/09/22 12:55:53;;;;;;;8.77;2.70;;;;;;;;;;5055284;28;20071;-69
2021/09/22 12:58:23;;;;;;;5.05;2.40;;;;;;;;;;5040754;28;20722;-69
2021/09/22 13:00:51;;;;;;;6.72;2.70;;;;;;;;;;5058534;28;20042;-67
2021/09/22 13:03:41;;;;;;;7.93;2.53;;;;;;;;;;5060303;28;20027;-68
2021/09/22 13:06:09;;;;;;;4.28;2.20;;;;;;;;;;5076801;28;20032;-69
2021/09/22 13:08:47;;;;;;;5.30;2.58;;;;;;;;;;5044778;28;20033;-70
2021/09/22 13:11:15;;;;;;;5.00;2.33;;;;;;;;;;5046213;28;20031;-68
2021/09/22 13:13:42;;;;;;;5.72;2.15;;;;;;;;;;5051145;28;20159;-73
2021/09/22 13:16:12;;;;;;;5.35;2.15;;;;;;;;;;5062101;28;20028;-69
2021/09/22 13:18:38;;;;;;;9.00;2.42;;;;;;;;;;5051409;28;20052;-69
2021/09/22 13:21:04;;;;;;;5.47;2.58;;;;;;;;;;5053990;28;20050;-67
2021/09/22 13:23:29;;;;;;;5.35;2.05;;;;;;;;;;5055018;28;20503;-69
2021/09/22 13:25:56;;;;;;;7.45;2.08;;;;;;;;;;5041241;28;20024;-71
2021/09/22 13:28:22;;;;;;;7.15;2.30;;;;;;;;;;5044373;28;20039;-70
2021/09/22 13:30:51;;;;;;;5.07;2.30;;;;;;;;;;5044389;28;20029;-71
2021/09/22 13:33:18;;;;;;;4.40;2.03;;;;;;;;;;5034828;28;20093;-65
2021/09/22 13:35:43;;;;;;;6.22;2.15;;;;;;;;;;5056357;28;20020;-65
2021/09/22 13:38:09;;;;;;;13.07;1.95;;;;;;;;;;5037658;28;20102;-65
2021/09/22 13:40:35;;;;;;;6.05;1.80;;;;;;;;;;5054572;28;20529;-68
2021/09/22 13:43:03;;;;;;;6.07;2.03;;;;;;;;;;5054708;28;20042;-70
2021/09/22 13:45:31;;;;;;;7.43;1.95;;;;;;;;;;5053856;28;20028;-70
2021/09/22 13:47:59;;;;;;;4.90;1.80;;;;;;;;;;5061143;28;20530;-70
2021/09/22 13:50:24;;;;;;;3.33;1.90;;;;;;;;;;5055704;28;20151;-69
2021/09/22 13:52:53;;;;;;;4.20;1.73;;;;;;;;;;5054006;28;20066;-70
2021/09/22 13:55:18;;;;;;;4.80;1.58;;;;;;;;;;5029897;28;20028;-69
2021/09/22 13:57:44;;;;;;;5.15;1.95;;;;;;;;;;5057213;28;20086;-67
2021/09/22 14:00:12;;;;;;;7.15;1.75;;;;;;;;;;5063317;28;20285;-69
2021/09/22 14:02:38;;;;;;;12.00;2.13;;;;;;;;;;5025592;28;20044;-68
2021/09/22 14:05:03;;;;;;;3.28;1.77;;;;;;;;;;5060427;28;20523;-67
2021/09/22 14:07:29;;;;;;;4.88;2.20;;;;;;;;;;5048492;28;20047;-68
2021/09/22 14:09:54;;;;;;;4.68;1.65;;;;;;;;;;5057404;28;20032;-70
2021/09/22 14:12:20;;;;;;;4.03;1.92;;;;;;;;;;5045596;28;20035;-69
2021/09/22 14:14:45;;;;;;;8.60;2.17;;;;;;;;;;5045203;28;20499;-70
2021/09/22 14:17:11;;;;;;;4.15;1.92;;;;;;;;;;5042570;28;21145;-67
2021/09/22 14:19:37;;;;;;;6.40;1.67;;;;;;;;;;5060152;28;20047;-68
2021/09/22 14:22:02;;;;;;;6.32;2.22;;;;;;;;;;5059198;28;20779;-69
2021/09/22 14:24:30;;;;;;;3.08;1.80;;;;;;;;;;5046632;28;20036;-72
2021/09/22 14:26:56;;;;;;;5.10;1.55;;;;;;;;;;5059062;28;20032;-67
2021/09/22 14:29:21;;;;;;;9.50;1.70;;;;;;;;;;5046293;28;20021;-69
2021/09/22 14:31:47;;;;;;;5.78;1.90;;;;;;;;;;5059295;28;20025;-69
2021/09/22 14:34:12;;;;;;;11.68;2.30;;;;;;;;;;5042024;28;20123;-73
2021/09/22 14:36:38;;;;;;;4.38;2.10;;;;;;;;;;5058204;28;20028;-70
2021/09/22 14:39:06;;;;;;;5.82;2.30;;;;;;;;;;5058971;28;20028;-67
2021/09/22 14:41:32;;;;;;;4.15;1.90;;;;;;;;;;5025415;28;20040;-71
2021/09/22 14:43:58;;;;;;;4.82;1.83;;;;;;;;;;5058207;28;20024;-68
2021/09/22 14:46:23;;;;;;;4.70;2.15;;;;;;;;;;5059815;28;20093;-71
2021/09/22 14:48:49;;;;;;;7.43;2.10;;;;;;;;;;5059153;28;20105;-70
2021/09/22 14:51:17;;;;;;;3.58;1.90;;;;;;;;;;5058862;28;20600;-71
2021/09/22 14:53:42;;;;;;;4.38;2.40;;;;;;;;;;5060765;28;20039;-71
2021/09/22 14:56:08;;;;;;;3.88;1.85;;;;;;;;;;5056438;28;20530;-69
2021/09/22 14:58:34;;;;;;;6.88;2.28;;;;;;;;;;5054064;28;20077;-67
2021/09/22 15:01:00;;;;;;;7.32;2.47;;;;;;;;;;5046669;28;20115;-68
2021/09/22 15:03:28;;;;;;;5.53;2.30;;;;;;;;;;5043016;28;20027;-68
2021/09/22 15:05:54;;;;;;;7.03;2.65;;;;;;;;;;5039529;28;20029;-70
2021/09/22 15:08:20;;;;;;;4.95;2.83;;;;;;;;;;5056782;28;20023;-70
2021/09/22 15:10:48;;;;;;;5.35;2.67;;;;;;;;;;5041074;28;20939;-71
2021/09/22 15:13:14;;;;;;;7.45;2.78;;;;;;;;;;5058105;28;20089;-69
2021/09/22 15:15:40;;;;;;;10.05;3.25;;;;;;;;;;5060571;28;20513;-68
2021/09/22 15:18:05;;;;;;;7.30;3.38;;;;;;;;;;5033282;28;20024;-68
2021/09/22 15:20:33;;;;;;;10.50;3.38;;;;;;;;;;5028896;28;20028;-67
2021/09/22 15:22:59;;;;;;;7.03;3.45;;;;;;;;;;5043526;28;20047;-69
2021/09/22 15:25:25;;;;;;;7.05;3.05;;;;;;;;;;5059141;28;20289;-70
2021/09/22 15:27:51;;;;;;;6.63;3.17;;;;;;;;;;5048211;28;20490;-68
2021/09/22 15:30:21;;;;;;;11.10;4.28;;;;;;;;;;5049916;28;20027;-69
2021/09/22 15:32:46;;;;;;;11.45;4.00;;;;;;;;;;5076829;28;21278;-68
2021/09/22 15:35:13;;;;;;;8.70;3.83;;;;;;;;;;5075600;28;20020;-66
2021/09/22 15:37:40;;;;;;;9.88;4.10;;;;;;;;;;5066698;28;20031;-71
2021/09/22 15:40:08;;;;;;;10.57;3.80;;;;;;;;;;5047229;28;20106;-67
2021/09/22 15:42:36;;;;;;;13.85;4.18;;;;;;;;;;5050020;28;20024;-65
2021/09/22 15:45:03;;;;;;;19.77;4.68;;;;;;;;;;5060170;28;20936;-67
2021/09/22 15:47:29;;;;;;;8.43;3.90;;;;;;;;;;5059374;28;20035;-67
2021/09/22 15:49:58;;;;;;;8.98;4.13;;;;;;;;;;5061174;28;20111;-67
2021/09/22 15:52:24;;;;;;;9.85;4.07;;;;;;;;;;5044079;27;20036;-68
2021/09/22 15:54:52;;;;;;;11.82;4.10;;;;;;;;;;5050209;28;20119;-68
2021/09/22 15:57:19;;;;;;;8.43;3.78;;;;;;;;;;5061063;28;20455;-69
2021/09/22 15:59:47;;;;;;;14.05;4.38;;;;;;;;;;5062169;28;21358;-67
2021/09/22 16:02:13;;;;;;;10.45;4.25;;;;;;;;;;5030194;28;20792;-67
2021/09/22 16:04:39;;;;;;;8.55;4.07;;;;;;;;;;5040809;28;20035;-70
2021/09/22 16:07:08;;;;;;;8.07;4.25;;;;;;;;;;5077320;28;20480;-69
2021/09/22 16:09:36;;;;;;;10.68;4.22;;;;;;;;;;5049082;28;20035;-70
2021/09/22 16:12:03;;;;;;;7.88;3.90;;;;;;;;;;5045695;28;20509;-69
2021/09/22 16:14:28;;;;;;;14.30;4.82;;;;;;;;;;5057488;28;20358;-68
2021/09/22 16:16:55;;;;;;;9.90;3.38;;;;;;;;;;5078353;28;20032;-70
2021/09/22 16:19:21;;;;;;;14.23;4.50;;;;;;;;;;5059285;28;20936;-68
2021/09/22 16:21:47;;;;;;;6.60;4.15;;;;;;;;;;5042236;28;20036;-70
2021/09/22 16:24:12;;;;;;;18.13;5.13;;;;;;;;;;5056652;28;20109;-68
2021/09/22 16:26:38;;;;;;;10.20;4.15;;;;;;;;;;5058079;28;20664;-69
2021/09/22 16:29:03;;;;;;;10.35;3.92;;;;;;;;;;5043238;28;20050;-68
2021/09/22 16:31:29;;;;;;;9.00;4.00;;;;;;;;;;5060898;28;20036;-69
2021/09/22 16:33:55;;;;;;;10.23;4.32;;;;;;;;;;5047556;28;20016;-69
2021/09/22 16:36:23;;;;;;;9.95;4.43;;;;;;;;;;5057344;28;20056;-69
2021/09/22 16:38:48;;;;;;;15.00;4.55;;;;;;;;;;5058846;28;20031;-69
2021/09/22 16:41:14;;;;;;;8.48;4.40;;;;;;;;;;5049642;28;21301;-68
2021/09/22 16:43:40;;;;;;;7.85;3.92;;;;;;;;;;5057537;28;20135;-69
2021/09/22 16:46:05;;;;;;;12.10;4.30;;;;;;;;;;5041282;28;20040;-68
2021/09/22 16:48:33;;;;;;;10.65;3.85;;;;;;;;;;5047799;28;20036;-69
2021/09/22 16:51:00;;;;;;;7.45;4.00;;;;;;;;;;5043370;28;20057;-70
2021/09/22 16:53:26;;;;;;;8.88;4.20;;;;;;;;;;5045123;28;20024;-70
2021/09/22 16:55:52;;;;;;;6.15;4.22;;;;;;;;;;5078665;28;20028;-69